sensor_id;sensor_type;location;lat;lon;timestamp;P1;durP1;ratioP1;P2;durP2;ratioP2
74974;SDS011;68459;50.836;19.138;2023-06-10T00:02:01;15.48;;;10.52;;
74974;SDS011;68459;50.836;19.138;2023-06-10T00:05:05;14.20;;;10.43;;
74974;SDS011;68459;50.836;19.138;2023-06-10T00:08:13;15.27;;;11.07;;
74974;SDS011;68459;50.836;19.138;2023-06-10T00:11:21;14.27;;;10.32;;
74974;SDS011;68459;50.836;19.138;2023-06-10T00:14:25;14.33;;;10.73;;
74974;SDS011;68459;50.836;19.138;2023-06-10T00:17:29;14.13;;;10.45;;
74974;SDS011;68459;50.836;19.138;2023-06-10T00:20:33;12.07;;;10.77;;
74974;SDS011;68459;50.836;19.138;2023-06-10T00:23:39;15.32;;;10.43;;
74974;SDS011;68459;50.836;19.138;2023-06-10T00:26:43;12.93;;;10.83;;
74974;SDS011;68459;50.836;19.138;2023-06-10T00:29:47;11.90;;;10.70;;
74974;SDS011;68459;50.836;19.138;2023-06-10T00:32:51;15.63;;;11.13;;
74974;SDS011;68459;50.836;19.138;2023-06-10T00:35:55;12.00;;;10.70;;
74974;SDS011;68459;50.836;19.138;2023-06-10T00:39:00;14.18;;;11.07;;
74974;SDS011;68459;50.836;19.138;2023-06-10T00:42:06;16.03;;;10.90;;
74974;SDS011;68459;50.836;19.138;2023-06-10T00:45:12;12.82;;;10.85;;
74974;SDS011;68459;50.836;19.138;2023-06-10T00:48:16;13.15;;;10.13;;
74974;SDS011;68459;50.836;19.138;2023-06-10T00:51:21;13.38;;;10.88;;
74974;SDS011;68459;50.836;19.138;2023-06-10T00:54:27;14.37;;;11.23;;
74974;SDS011;68459;50.836;19.138;2023-06-10T00:57:31;12.50;;;10.30;;
74974;SDS011;68459;50.836;19.138;2023-06-10T01:00:36;13.63;;;10.55;;
74974;SDS011;68459;50.836;19.138;2023-06-10T01:03:40;14.15;;;10.55;;
74974;SDS011;68459;50.836;19.138;2023-06-10T01:06:45;12.87;;;11.10;;
74974;SDS011;68459;50.836;19.138;2023-06-10T01:10:04;18.10;;;12.23;;
74974;SDS011;68459;50.836;19.138;2023-06-10T01:13:15;14.32;;;11.80;;
74974;SDS011;68459;50.836;19.138;2023-06-10T01:16:21;18.00;;;12.30;;
74974;SDS011;68459;50.836;19.138;2023-06-10T01:19:27;13.82;;;11.60;;
74974;SDS011;68459;50.836;19.138;2023-06-10T01:22:34;14.82;;;11.50;;
74974;SDS011;68459;50.836;19.138;2023-06-10T01:25:39;13.77;;;11.82;;
74974;SDS011;68459;50.836;19.138;2023-06-10T01:28:49;14.25;;;11.35;;
74974;SDS011;68459;50.836;19.138;2023-06-10T01:32:03;15.15;;;11.10;;
74974;SDS011;68459;50.836;19.138;2023-06-10T01:35:18;18.17;;;11.00;;
74974;SDS011;68459;50.836;19.138;2023-06-10T01:38:30;17.63;;;11.40;;
74974;SDS011;68459;50.836;19.138;2023-06-10T01:41:40;14.40;;;10.43;;
74974;SDS011;68459;50.836;19.138;2023-06-10T01:44:44;17.25;;;11.93;;
74974;SDS011;68459;50.836;19.138;2023-06-10T01:47:48;17.33;;;12.00;;
74974;SDS011;68459;50.836;19.138;2023-06-10T01:50:52;20.63;;;13.05;;
74974;SDS011;68459;50.836;19.138;2023-06-10T01:53:59;13.57;;;10.30;;
74974;SDS011;68459;50.836;19.138;2023-06-10T01:57:02;14.38;;;9.50;;
74974;SDS011;68459;50.836;19.138;2023-06-10T02:00:09;12.80;;;10.20;;
74974;SDS011;68459;50.836;19.138;2023-06-10T02:03:19;13.52;;;10.35;;
74974;SDS011;68459;50.836;19.138;2023-06-10T02:06:23;13.35;;;10.25;;
74974;SDS011;68459;50.836;19.138;2023-06-10T02:09:29;14.43;;;9.95;;
74974;SDS011;68459;50.836;19.138;2023-06-10T02:12:33;12.43;;;9.13;;
74974;SDS011;68459;50.836;19.138;2023-06-10T02:15:37;13.48;;;9.40;;
74974;SDS011;68459;50.836;19.138;2023-06-10T02:18:41;10.75;;;9.07;;
74974;SDS011;68459;50.836;19.138;2023-06-10T02:21:46;14.13;;;8.68;;
74974;SDS011;68459;50.836;19.138;2023-06-10T02:24:51;11.18;;;8.07;;
74974;SDS011;68459;50.836;19.138;2023-06-10T02:27:55;12.32;;;6.50;;
74974;SDS011;68459;50.836;19.138;2023-06-10T02:30:59;8.25;;;6.30;;
74974;SDS011;68459;50.836;19.138;2023-06-10T02:34:03;8.32;;;5.53;;
74974;SDS011;68459;50.836;19.138;2023-06-10T02:37:08;9.57;;;5.20;;
74974;SDS011;68459;50.836;19.138;2023-06-10T02:40:13;7.50;;;4.78;;
74974;SDS011;68459;50.836;19.138;2023-06-10T02:43:18;7.85;;;5.82;;
74974;SDS011;68459;50.836;19.138;2023-06-10T02:46:22;6.60;;;4.80;;
74974;SDS011;68459;50.836;19.138;2023-06-10T02:49:28;6.45;;;4.90;;
74974;SDS011;68459;50.836;19.138;2023-06-10T02:52:31;9.30;;;4.57;;
74974;SDS011;68459;50.836;19.138;2023-06-10T02:55:37;8.05;;;4.82;;
74974;SDS011;68459;50.836;19.138;2023-06-10T02:58:44;7.95;;;5.22;;
74974;SDS011;68459;50.836;19.138;2023-06-10T03:01:50;7.15;;;5.00;;
74974;SDS011;68459;50.836;19.138;2023-06-10T03:04:55;6.18;;;4.78;;
74974;SDS011;68459;50.836;19.138;2023-06-10T03:08:00;5.97;;;4.40;;
74974;SDS011;68459;50.836;19.138;2023-06-10T03:11:07;7.05;;;5.43;;
74974;SDS011;68459;50.836;19.138;2023-06-10T03:14:13;7.03;;;5.77;;
74974;SDS011;68459;50.836;19.138;2023-06-10T03:17:16;8.60;;;6.85;;
74974;SDS011;68459;50.836;19.138;2023-06-10T03:20:20;9.77;;;7.60;;
74974;SDS011;68459;50.836;19.138;2023-06-10T03:23:25;10.43;;;7.82;;
74974;SDS011;68459;50.836;19.138;2023-06-10T03:26:32;12.05;;;7.75;;
74974;SDS011;68459;50.836;19.138;2023-06-10T03:29:37;12.20;;;8.10;;
74974;SDS011;68459;50.836;19.138;2023-06-10T03:32:42;10.60;;;8.50;;
74974;SDS011;68459;50.836;19.138;2023-06-10T03:35:49;11.02;;;7.78;;
74974;SDS011;68459;50.836;19.138;2023-06-10T03:38:53;11.13;;;7.33;;
74974;SDS011;68459;50.836;19.138;2023-06-10T03:42:01;11.73;;;7.28;;
74974;SDS011;68459;50.836;19.138;2023-06-10T03:45:07;9.60;;;7.90;;
74974;SDS011;68459;50.836;19.138;2023-06-10T03:48:12;10.05;;;7.53;;
74974;SDS011;68459;50.836;19.138;2023-06-10T03:51:21;9.13;;;7.27;;
74974;SDS011;68459;50.836;19.138;2023-06-10T03:54:25;10.30;;;7.80;;
74974;SDS011;68459;50.836;19.138;2023-06-10T03:57:31;10.60;;;7.75;;
74974;SDS011;68459;50.836;19.138;2023-06-10T04:00:35;10.57;;;7.78;;
74974;SDS011;68459;50.836;19.138;2023-06-10T04:03:43;11.27;;;8.23;;
74974;SDS011;68459;50.836;19.138;2023-06-10T04:06:47;11.57;;;7.82;;
74974;SDS011;68459;50.836;19.138;2023-06-10T04:09:51;11.63;;;8.57;;
74974;SDS011;68459;50.836;19.138;2023-06-10T04:12:56;11.70;;;8.40;;
74974;SDS011;68459;50.836;19.138;2023-06-10T04:16:04;10.95;;;8.23;;
74974;SDS011;68459;50.836;19.138;2023-06-10T04:19:08;11.50;;;8.43;;
74974;SDS011;68459;50.836;19.138;2023-06-10T04:22:13;9.75;;;7.82;;
74974;SDS011;68459;50.836;19.138;2023-06-10T04:25:16;11.02;;;7.72;;
74974;SDS011;68459;50.836;19.138;2023-06-10T04:28:24;9.20;;;7.47;;
74974;SDS011;68459;50.836;19.138;2023-06-10T04:31:29;13.03;;;8.63;;
74974;SDS011;68459;50.836;19.138;2023-06-10T04:34:34;8.95;;;7.97;;
74974;SDS011;68459;50.836;19.138;2023-06-10T04:37:41;12.18;;;8.65;;
74974;SDS011;68459;50.836;19.138;2023-06-10T04:40:46;12.68;;;9.35;;
74974;SDS011;68459;50.836;19.138;2023-06-10T04:43:52;11.93;;;9.93;;
74974;SDS011;68459;50.836;19.138;2023-06-10T04:46:56;12.77;;;8.55;;
74974;SDS011;68459;50.836;19.138;2023-06-10T04:50:00;11.13;;;8.50;;
74974;SDS011;68459;50.836;19.138;2023-06-10T04:53:06;10.02;;;8.68;;
74974;SDS011;68459;50.836;19.138;2023-06-10T04:56:12;11.83;;;8.20;;
74974;SDS011;68459;50.836;19.138;2023-06-10T04:59:18;13.30;;;7.35;;
74974;SDS011;68459;50.836;19.138;2023-06-10T05:02:22;9.77;;;6.47;;
74974;SDS011;68459;50.836;19.138;2023-06-10T05:05:26;8.63;;;7.25;;
74974;SDS011;68459;50.836;19.138;2023-06-10T05:08:30;7.03;;;5.80;;
74974;SDS011;68459;50.836;19.138;2023-06-10T05:11:33;7.97;;;5.88;;
74974;SDS011;68459;50.836;19.138;2023-06-10T05:14:38;7.80;;;6.57;;
74974;SDS011;68459;50.836;19.138;2023-06-10T05:17:43;8.48;;;6.47;;
74974;SDS011;68459;50.836;19.138;2023-06-10T05:20:46;8.73;;;6.43;;
74974;SDS011;68459;50.836;19.138;2023-06-10T05:23:51;7.10;;;5.32;;
74974;SDS011;68459;50.836;19.138;2023-06-10T05:26:55;7.43;;;4.95;;
74974;SDS011;68459;50.836;19.138;2023-06-10T05:30:00;8.25;;;5.22;;
74974;SDS011;68459;50.836;19.138;2023-06-10T05:33:05;6.65;;;4.25;;
74974;SDS011;68459;50.836;19.138;2023-06-10T05:36:09;7.35;;;5.10;;
74974;SDS011;68459;50.836;19.138;2023-06-10T05:39:13;13.05;;;7.55;;
74974;SDS011;68459;50.836;19.138;2023-06-10T05:42:17;9.77;;;7.50;;
74974;SDS011;68459;50.836;19.138;2023-06-10T05:45:22;7.78;;;5.50;;
74974;SDS011;68459;50.836;19.138;2023-06-10T05:48:26;8.27;;;4.80;;
74974;SDS011;68459;50.836;19.138;2023-06-10T05:51:30;10.70;;;5.93;;
74974;SDS011;68459;50.836;19.138;2023-06-10T05:54:34;8.60;;;6.32;;
74974;SDS011;68459;50.836;19.138;2023-06-10T05:57:41;8.23;;;6.18;;
74974;SDS011;68459;50.836;19.138;2023-06-10T06:00:46;11.40;;;6.67;;
74974;SDS011;68459;50.836;19.138;2023-06-10T06:03:50;8.15;;;5.47;;
74974;SDS011;68459;50.836;19.138;2023-06-10T06:06:54;7.40;;;5.80;;
74974;SDS011;68459;50.836;19.138;2023-06-10T06:09:58;6.75;;;4.90;;
74974;SDS011;68459;50.836;19.138;2023-06-10T06:13:02;6.83;;;5.17;;
74974;SDS011;68459;50.836;19.138;2023-06-10T06:16:07;7.22;;;5.38;;
74974;SDS011;68459;50.836;19.138;2023-06-10T06:19:11;7.97;;;5.35;;
74974;SDS011;68459;50.836;19.138;2023-06-10T06:22:15;6.50;;;5.78;;
74974;SDS011;68459;50.836;19.138;2023-06-10T06:25:22;6.88;;;4.43;;
74974;SDS011;68459;50.836;19.138;2023-06-10T06:28:25;5.43;;;4.37;;
74974;SDS011;68459;50.836;19.138;2023-06-10T06:31:32;6.45;;;4.57;;
74974;SDS011;68459;50.836;19.138;2023-06-10T06:34:36;6.38;;;4.65;;
74974;SDS011;68459;50.836;19.138;2023-06-10T06:37:40;7.32;;;4.80;;
74974;SDS011;68459;50.836;19.138;2023-06-10T06:40:58;5.75;;;4.80;;
74974;SDS011;68459;50.836;19.138;2023-06-10T06:44:05;8.47;;;5.50;;
74974;SDS011;68459;50.836;19.138;2023-06-10T06:47:14;10.52;;;5.60;;
74974;SDS011;68459;50.836;19.138;2023-06-10T06:50:21;6.13;;;4.85;;
74974;SDS011;68459;50.836;19.138;2023-06-10T06:53:25;8.15;;;5.20;;
74974;SDS011;68459;50.836;19.138;2023-06-10T06:56:34;7.00;;;5.10;;
74974;SDS011;68459;50.836;19.138;2023-06-10T06:59:37;8.83;;;4.53;;
74974;SDS011;68459;50.836;19.138;2023-06-10T07:02:43;7.55;;;4.97;;
74974;SDS011;68459;50.836;19.138;2023-06-10T07:05:46;6.82;;;4.90;;
74974;SDS011;68459;50.836;19.138;2023-06-10T07:08:50;8.52;;;5.22;;
74974;SDS011;68459;50.836;19.138;2023-06-10T07:11:54;7.05;;;5.03;;
74974;SDS011;68459;50.836;19.138;2023-06-10T07:14:58;7.47;;;5.40;;
74974;SDS011;68459;50.836;19.138;2023-06-10T07:18:03;8.05;;;5.50;;
74974;SDS011;68459;50.836;19.138;2023-06-10T07:21:07;8.90;;;5.75;;
74974;SDS011;68459;50.836;19.138;2023-06-10T07:24:11;7.18;;;5.22;;
74974;SDS011;68459;50.836;19.138;2023-06-10T07:27:15;8.50;;;5.30;;
74974;SDS011;68459;50.836;19.138;2023-06-10T07:30:18;6.53;;;5.53;;
74974;SDS011;68459;50.836;19.138;2023-06-10T07:33:24;7.18;;;5.60;;
74974;SDS011;68459;50.836;19.138;2023-06-10T07:36:28;7.15;;;5.15;;
74974;SDS011;68459;50.836;19.138;2023-06-10T07:39:32;6.72;;;4.65;;
74974;SDS011;68459;50.836;19.138;2023-06-10T07:42:36;6.90;;;4.53;;
74974;SDS011;68459;50.836;19.138;2023-06-10T07:45:40;6.03;;;4.50;;
74974;SDS011;68459;50.836;19.138;2023-06-10T07:48:45;6.25;;;4.57;;
74974;SDS011;68459;50.836;19.138;2023-06-10T07:51:49;7.10;;;4.43;;
74974;SDS011;68459;50.836;19.138;2023-06-10T07:54:53;5.55;;;4.60;;
74974;SDS011;68459;50.836;19.138;2023-06-10T07:57:57;6.20;;;4.78;;
74974;SDS011;68459;50.836;19.138;2023-06-10T08:01:01;7.17;;;4.60;;
74974;SDS011;68459;50.836;19.138;2023-06-10T08:04:06;12.20;;;8.10;;
74974;SDS011;68459;50.836;19.138;2023-06-10T08:07:10;7.63;;;6.00;;
74974;SDS011;68459;50.836;19.138;2023-06-10T08:10:14;6.05;;;4.65;;
74974;SDS011;68459;50.836;19.138;2023-06-10T08:13:18;8.45;;;5.30;;
74974;SDS011;68459;50.836;19.138;2023-06-10T08:16:22;5.87;;;4.53;;
74974;SDS011;68459;50.836;19.138;2023-06-10T08:19:27;6.28;;;4.47;;
74974;SDS011;68459;50.836;19.138;2023-06-10T08:22:32;7.45;;;5.30;;
74974;SDS011;68459;50.836;19.138;2023-06-10T08:25:36;5.32;;;4.63;;
74974;SDS011;68459;50.836;19.138;2023-06-10T08:28:40;5.80;;;4.85;;
74974;SDS011;68459;50.836;19.138;2023-06-10T08:31:44;6.63;;;5.03;;
74974;SDS011;68459;50.836;19.138;2023-06-10T08:34:49;6.63;;;4.60;;
74974;SDS011;68459;50.836;19.138;2023-06-10T08:37:53;6.93;;;5.30;;
74974;SDS011;68459;50.836;19.138;2023-06-10T08:40:59;7.45;;;5.35;;
74974;SDS011;68459;50.836;19.138;2023-06-10T08:44:07;10.07;;;5.43;;
74974;SDS011;68459;50.836;19.138;2023-06-10T08:47:20;6.43;;;4.77;;
74974;SDS011;68459;50.836;19.138;2023-06-10T08:50:28;6.47;;;5.53;;
74974;SDS011;68459;50.836;19.138;2023-06-10T08:53:34;5.97;;;5.05;;
74974;SDS011;68459;50.836;19.138;2023-06-10T08:56:44;5.72;;;4.63;;
74974;SDS011;68459;50.836;19.138;2023-06-10T08:59:53;8.38;;;4.93;;
74974;SDS011;68459;50.836;19.138;2023-06-10T09:02:59;7.70;;;6.37;;
74974;SDS011;68459;50.836;19.138;2023-06-10T09:06:08;7.25;;;5.30;;
74974;SDS011;68459;50.836;19.138;2023-06-10T09:09:14;6.35;;;4.78;;
74974;SDS011;68459;50.836;19.138;2023-06-10T09:12:18;6.72;;;4.93;;
74974;SDS011;68459;50.836;19.138;2023-06-10T09:15:22;5.07;;;4.57;;
74974;SDS011;68459;50.836;19.138;2023-06-10T09:18:26;5.47;;;4.40;;
74974;SDS011;68459;50.836;19.138;2023-06-10T09:21:32;5.93;;;4.72;;
74974;SDS011;68459;50.836;19.138;2023-06-10T09:24:37;9.43;;;4.93;;
74974;SDS011;68459;50.836;19.138;2023-06-10T09:27:45;6.30;;;4.60;;
74974;SDS011;68459;50.836;19.138;2023-06-10T09:31:01;6.28;;;4.70;;
74974;SDS011;68459;50.836;19.138;2023-06-10T09:34:07;8.57;;;4.47;;
74974;SDS011;68459;50.836;19.138;2023-06-10T09:37:14;7.47;;;4.93;;
74974;SDS011;68459;50.836;19.138;2023-06-10T09:40:24;7.22;;;4.97;;
74974;SDS011;68459;50.836;19.138;2023-06-10T09:43:42;7.22;;;4.38;;
74974;SDS011;68459;50.836;19.138;2023-06-10T09:46:50;4.50;;;4.07;;
74974;SDS011;68459;50.836;19.138;2023-06-10T09:49:56;5.83;;;4.07;;
74974;SDS011;68459;50.836;19.138;2023-06-10T09:53:02;5.78;;;3.95;;
74974;SDS011;68459;50.836;19.138;2023-06-10T09:56:09;5.03;;;3.35;;
74974;SDS011;68459;50.836;19.138;2023-06-10T09:59:13;6.63;;;4.07;;
74974;SDS011;68459;50.836;19.138;2023-06-10T10:02:18;6.28;;;4.15;;
74974;SDS011;68459;50.836;19.138;2023-06-10T10:05:22;6.23;;;4.50;;
74974;SDS011;68459;50.836;19.138;2023-06-10T10:08:28;5.55;;;4.60;;
74974;SDS011;68459;50.836;19.138;2023-06-10T10:11:34;5.53;;;4.28;;
74974;SDS011;68459;50.836;19.138;2023-06-10T10:14:40;5.07;;;3.97;;
74974;SDS011;68459;50.836;19.138;2023-06-10T10:17:52;7.85;;;4.90;;
74974;SDS011;68459;50.836;19.138;2023-06-10T10:21:04;8.60;;;4.10;;
74974;SDS011;68459;50.836;19.138;2023-06-10T10:24:18;5.53;;;3.45;;
74974;SDS011;68459;50.836;19.138;2023-06-10T10:27:26;4.78;;;3.55;;
74974;SDS011;68459;50.836;19.138;2023-06-10T10:30:34;5.75;;;3.30;;
74974;SDS011;68459;50.836;19.138;2023-06-10T10:33:45;5.25;;;3.22;;
74974;SDS011;68459;50.836;19.138;2023-06-10T10:36:58;4.50;;;3.17;;
74974;SDS011;68459;50.836;19.138;2023-06-10T10:40:05;4.35;;;3.40;;
74974;SDS011;68459;50.836;19.138;2023-06-10T10:43:11;4.30;;;3.50;;
74974;SDS011;68459;50.836;19.138;2023-06-10T10:46:17;4.95;;;3.40;;
74974;SDS011;68459;50.836;19.138;2023-06-10T10:49:21;4.15;;;3.50;;
74974;SDS011;68459;50.836;19.138;2023-06-10T10:52:46;4.97;;;3.60;;
74974;SDS011;68459;50.836;19.138;2023-06-10T10:56:00;7.65;;;3.78;;
74974;SDS011;68459;50.836;19.138;2023-06-10T10:59:11;6.13;;;3.67;;
74974;SDS011;68459;50.836;19.138;2023-06-10T11:02:15;4.88;;;3.30;;
74974;SDS011;68459;50.836;19.138;2023-06-10T11:05:31;5.80;;;3.38;;
74974;SDS011;68459;50.836;19.138;2023-06-10T11:08:46;4.20;;;3.23;;
74974;SDS011;68459;50.836;19.138;2023-06-10T11:11:52;5.63;;;3.13;;
74974;SDS011;68459;50.836;19.138;2023-06-10T11:14:59;9.30;;;6.43;;
74974;SDS011;68459;50.836;19.138;2023-06-10T11:18:10;6.05;;;3.88;;
74974;SDS011;68459;50.836;19.138;2023-06-10T11:21:37;4.65;;;3.60;;
74974;SDS011;68459;50.836;19.138;2023-06-10T11:25:02;5.30;;;3.33;;
74974;SDS011;68459;50.836;19.138;2023-06-10T11:28:20;3.80;;;3.28;;
74974;SDS011;68459;50.836;19.138;2023-06-10T11:31:31;4.50;;;3.25;;
74974;SDS011;68459;50.836;19.138;2023-06-10T11:34:37;4.20;;;3.65;;
74974;SDS011;68459;50.836;19.138;2023-06-10T11:37:41;5.55;;;3.15;;
74974;SDS011;68459;50.836;19.138;2023-06-10T11:40:46;4.90;;;2.90;;
74974;SDS011;68459;50.836;19.138;2023-06-10T11:43:53;7.22;;;3.58;;
74974;SDS011;68459;50.836;19.138;2023-06-10T11:46:58;5.22;;;3.70;;
74974;SDS011;68459;50.836;19.138;2023-06-10T11:50:02;5.07;;;3.50;;
74974;SDS011;68459;50.836;19.138;2023-06-10T11:53:08;3.90;;;3.05;;
74974;SDS011;68459;50.836;19.138;2023-06-10T11:56:12;4.73;;;3.00;;
74974;SDS011;68459;50.836;19.138;2023-06-10T11:59:17;3.70;;;2.42;;
74974;SDS011;68459;50.836;19.138;2023-06-10T12:02:22;4.10;;;2.40;;
74974;SDS011;68459;50.836;19.138;2023-06-10T12:05:26;4.35;;;2.90;;
74974;SDS011;68459;50.836;19.138;2023-06-10T12:08:29;8.10;;;3.75;;
74974;SDS011;68459;50.836;19.138;2023-06-10T12:11:37;4.57;;;3.53;;
74974;SDS011;68459;50.836;19.138;2023-06-10T12:14:53;4.00;;;3.33;;
74974;SDS011;68459;50.836;19.138;2023-06-10T12:17:59;5.18;;;3.72;;
74974;SDS011;68459;50.836;19.138;2023-06-10T12:21:14;5.68;;;3.47;;
74974;SDS011;68459;50.836;19.138;2023-06-10T12:24:20;5.60;;;3.83;;
74974;SDS011;68459;50.836;19.138;2023-06-10T12:27:24;7.17;;;4.50;;
74974;SDS011;68459;50.836;19.138;2023-06-10T12:30:32;6.53;;;4.20;;
74974;SDS011;68459;50.836;19.138;2023-06-10T12:33:36;7.05;;;3.83;;
74974;SDS011;68459;50.836;19.138;2023-06-10T12:36:40;5.32;;;4.30;;
74974;SDS011;68459;50.836;19.138;2023-06-10T12:39:52;7.13;;;3.78;;
74974;SDS011;68459;50.836;19.138;2023-06-10T12:42:56;5.87;;;4.27;;
74974;SDS011;68459;50.836;19.138;2023-06-10T12:46:09;9.30;;;4.13;;
74974;SDS011;68459;50.836;19.138;2023-06-10T12:49:18;5.45;;;4.20;;
74974;SDS011;68459;50.836;19.138;2023-06-10T12:52:24;7.28;;;4.10;;
74974;SDS011;68459;50.836;19.138;2023-06-10T12:55:27;6.95;;;4.65;;
74974;SDS011;68459;50.836;19.138;2023-06-10T12:58:31;8.27;;;3.70;;
74974;SDS011;68459;50.836;19.138;2023-06-10T13:04:43;5.90;;;3.40;;
74974;SDS011;68459;50.836;19.138;2023-06-10T13:07:47;5.80;;;3.42;;
74974;SDS011;68459;50.836;19.138;2023-06-10T13:10:51;8.05;;;4.38;;
74974;SDS011;68459;50.836;19.138;2023-06-10T13:13:55;4.80;;;3.40;;
74974;SDS011;68459;50.836;19.138;2023-06-10T13:17:01;4.75;;;3.60;;
74974;SDS011;68459;50.836;19.138;2023-06-10T13:20:05;7.70;;;4.13;;
74974;SDS011;68459;50.836;19.138;2023-06-10T13:23:11;5.13;;;3.47;;
74974;SDS011;68459;50.836;19.138;2023-06-10T13:26:15;5.20;;;3.97;;
74974;SDS011;68459;50.836;19.138;2023-06-10T13:29:19;5.20;;;3.83;;
74974;SDS011;68459;50.836;19.138;2023-06-10T13:32:25;9.52;;;3.70;;
74974;SDS011;68459;50.836;19.138;2023-06-10T13:35:29;8.93;;;3.90;;
74974;SDS011;68459;50.836;19.138;2023-06-10T13:38:32;5.47;;;4.03;;
74974;SDS011;68459;50.836;19.138;2023-06-10T13:41:36;8.18;;;4.35;;
74974;SDS011;68459;50.836;19.138;2023-06-10T13:44:40;6.27;;;3.80;;
74974;SDS011;68459;50.836;19.138;2023-06-10T13:47:45;5.65;;;4.10;;
74974;SDS011;68459;50.836;19.138;2023-06-10T13:50:48;6.05;;;3.97;;
74974;SDS011;68459;50.836;19.138;2023-06-10T13:53:53;4.55;;;3.95;;
74974;SDS011;68459;50.836;19.138;2023-06-10T13:56:56;6.55;;;4.40;;
74974;SDS011;68459;50.836;19.138;2023-06-10T14:00:01;7.83;;;4.20;;
74974;SDS011;68459;50.836;19.138;2023-06-10T14:03:07;6.13;;;4.35;;
74974;SDS011;68459;50.836;19.138;2023-06-10T14:06:12;8.35;;;4.15;;
74974;SDS011;68459;50.836;19.138;2023-06-10T14:09:19;7.18;;;3.97;;
74974;SDS011;68459;50.836;19.138;2023-06-10T14:12:25;6.07;;;3.97;;
74974;SDS011;68459;50.836;19.138;2023-06-10T14:15:28;7.93;;;3.90;;
74974;SDS011;68459;50.836;19.138;2023-06-10T14:18:34;7.22;;;4.07;;
74974;SDS011;68459;50.836;19.138;2023-06-10T14:21:37;5.22;;;4.30;;
74974;SDS011;68459;50.836;19.138;2023-06-10T14:24:41;6.05;;;4.25;;
74974;SDS011;68459;50.836;19.138;2023-06-10T14:27:45;7.63;;;4.20;;
74974;SDS011;68459;50.836;19.138;2023-06-10T14:30:49;4.70;;;4.13;;
74974;SDS011;68459;50.836;19.138;2023-06-10T14:33:54;12.75;;;10.73;;
74974;SDS011;68459;50.836;19.138;2023-06-10T14:36:58;6.53;;;4.00;;
74974;SDS011;68459;50.836;19.138;2023-06-10T14:40:02;5.38;;;4.47;;
74974;SDS011;68459;50.836;19.138;2023-06-10T14:43:08;8.38;;;4.68;;
74974;SDS011;68459;50.836;19.138;2023-06-10T14:46:12;5.53;;;4.23;;
74974;SDS011;68459;50.836;19.138;2023-06-10T14:49:17;6.15;;;4.75;;
74974;SDS011;68459;50.836;19.138;2023-06-10T14:52:21;7.20;;;4.82;;
74974;SDS011;68459;50.836;19.138;2023-06-10T14:55:25;7.00;;;4.60;;
74974;SDS011;68459;50.836;19.138;2023-06-10T14:58:29;5.65;;;4.55;;
74974;SDS011;68459;50.836;19.138;2023-06-10T15:01:33;5.90;;;4.40;;
74974;SDS011;68459;50.836;19.138;2023-06-10T15:04:38;6.00;;;4.50;;
74974;SDS011;68459;50.836;19.138;2023-06-10T15:07:43;7.28;;;4.55;;
74974;SDS011;68459;50.836;19.138;2023-06-10T15:10:48;4.97;;;4.22;;
74974;SDS011;68459;50.836;19.138;2023-06-10T15:13:52;10.77;;;4.63;;
74974;SDS011;68459;50.836;19.138;2023-06-10T15:16:56;7.23;;;4.80;;
74974;SDS011;68459;50.836;19.138;2023-06-10T15:20:03;5.95;;;4.13;;
74974;SDS011;68459;50.836;19.138;2023-06-10T15:23:08;6.00;;;4.20;;
74974;SDS011;68459;50.836;19.138;2023-06-10T15:26:12;5.03;;;4.53;;
74974;SDS011;68459;50.836;19.138;2023-06-10T15:29:15;5.40;;;3.97;;
74974;SDS011;68459;50.836;19.138;2023-06-10T15:32:19;5.43;;;3.70;;
74974;SDS011;68459;50.836;19.138;2023-06-10T15:35:24;5.47;;;4.00;;
74974;SDS011;68459;50.836;19.138;2023-06-10T15:38:29;5.00;;;3.65;;
74974;SDS011;68459;50.836;19.138;2023-06-10T15:41:32;4.75;;;3.50;;
74974;SDS011;68459;50.836;19.138;2023-06-10T15:44:36;6.28;;;3.42;;
74974;SDS011;68459;50.836;19.138;2023-06-10T15:47:40;6.77;;;3.60;;
74974;SDS011;68459;50.836;19.138;2023-06-10T15:50:46;4.60;;;3.22;;
74974;SDS011;68459;50.836;19.138;2023-06-10T15:53:49;6.03;;;3.05;;
74974;SDS011;68459;50.836;19.138;2023-06-10T15:56:53;4.07;;;3.00;;
74974;SDS011;68459;50.836;19.138;2023-06-10T15:59:57;4.18;;;2.90;;
74974;SDS011;68459;50.836;19.138;2023-06-10T16:03:01;4.80;;;3.40;;
74974;SDS011;68459;50.836;19.138;2023-06-10T16:06:06;7.30;;;4.10;;
74974;SDS011;68459;50.836;19.138;2023-06-10T16:09:10;6.88;;;3.45;;
74974;SDS011;68459;50.836;19.138;2023-06-10T16:12:14;4.53;;;3.10;;
74974;SDS011;68459;50.836;19.138;2023-06-10T16:15:18;4.30;;;3.10;;
74974;SDS011;68459;50.836;19.138;2023-06-10T16:18:22;4.70;;;3.20;;
74974;SDS011;68459;50.836;19.138;2023-06-10T16:21:27;3.95;;;3.10;;
74974;SDS011;68459;50.836;19.138;2023-06-10T16:24:31;4.80;;;3.10;;
74974;SDS011;68459;50.836;19.138;2023-06-10T16:27:35;4.00;;;3.00;;
74974;SDS011;68459;50.836;19.138;2023-06-10T16:30:39;3.72;;;2.85;;
74974;SDS011;68459;50.836;19.138;2023-06-10T16:33:43;5.20;;;2.97;;
74974;SDS011;68459;50.836;19.138;2023-06-10T16:36:48;4.55;;;3.00;;
74974;SDS011;68459;50.836;19.138;2023-06-10T16:39:52;5.45;;;4.03;;
74974;SDS011;68459;50.836;19.138;2023-06-10T16:42:55;4.65;;;3.70;;
74974;SDS011;68459;50.836;19.138;2023-06-10T16:45:59;4.25;;;3.13;;
74974;SDS011;68459;50.836;19.138;2023-06-10T16:49:03;4.83;;;3.50;;
74974;SDS011;68459;50.836;19.138;2023-06-10T16:52:09;4.80;;;3.20;;
74974;SDS011;68459;50.836;19.138;2023-06-10T16:55:12;4.00;;;3.20;;
74974;SDS011;68459;50.836;19.138;2023-06-10T16:58:17;4.85;;;2.85;;
74974;SDS011;68459;50.836;19.138;2023-06-10T17:01:20;5.85;;;3.20;;
74974;SDS011;68459;50.836;19.138;2023-06-10T17:04:24;5.40;;;3.70;;
74974;SDS011;68459;50.836;19.138;2023-06-10T17:07:30;4.15;;;3.13;;
74974;SDS011;68459;50.836;19.138;2023-06-10T17:10:36;3.95;;;3.30;;
74974;SDS011;68459;50.836;19.138;2023-06-10T17:13:40;4.03;;;3.20;;
74974;SDS011;68459;50.836;19.138;2023-06-10T17:16:44;4.13;;;3.55;;
74974;SDS011;68459;50.836;19.138;2023-06-10T17:19:48;6.90;;;3.33;;
74974;SDS011;68459;50.836;19.138;2023-06-10T17:22:54;5.55;;;3.03;;
74974;SDS011;68459;50.836;19.138;2023-06-10T17:25:57;5.28;;;3.10;;
74974;SDS011;68459;50.836;19.138;2023-06-10T17:29:01;5.18;;;2.90;;
74974;SDS011;68459;50.836;19.138;2023-06-10T17:32:05;4.93;;;2.97;;
74974;SDS011;68459;50.836;19.138;2023-06-10T17:35:10;4.63;;;3.10;;
74974;SDS011;68459;50.836;19.138;2023-06-10T17:38:15;5.63;;;3.40;;
74974;SDS011;68459;50.836;19.138;2023-06-10T17:41:22;3.70;;;2.92;;
74974;SDS011;68459;50.836;19.138;2023-06-10T17:44:25;8.23;;;5.10;;
74974;SDS011;68459;50.836;19.138;2023-06-10T17:47:30;8.18;;;4.38;;
74974;SDS011;68459;50.836;19.138;2023-06-10T17:50:34;18.83;;;14.23;;
74974;SDS011;68459;50.836;19.138;2023-06-10T17:53:39;5.45;;;4.22;;
74974;SDS011;68459;50.836;19.138;2023-06-10T17:56:43;7.03;;;3.97;;
74974;SDS011;68459;50.836;19.138;2023-06-10T17:59:48;4.85;;;3.45;;
74974;SDS011;68459;50.836;19.138;2023-06-10T18:02:52;7.75;;;3.75;;
74974;SDS011;68459;50.836;19.138;2023-06-10T18:05:57;5.17;;;3.50;;
74974;SDS011;68459;50.836;19.138;2023-06-10T18:09:02;5.38;;;3.40;;
74974;SDS011;68459;50.836;19.138;2023-06-10T18:12:07;7.10;;;4.15;;
74974;SDS011;68459;50.836;19.138;2023-06-10T18:15:11;4.93;;;3.38;;
74974;SDS011;68459;50.836;19.138;2023-06-10T18:18:16;4.82;;;3.95;;
74974;SDS011;68459;50.836;19.138;2023-06-10T18:21:20;5.10;;;3.60;;